sensor_id;sensor_type;location;lat;lon;timestamp;temperature;humidity
13472;DHT22;6808;49.444;11.034;2023-05-07T00:00:33;15.10;99.90
13472;DHT22;6808;49.444;11.034;2023-05-07T00:02:59;14.50;99.90
13472;DHT22;6808;49.444;11.034;2023-05-07T00:05:25;14.50;99.90
13472;DHT22;6808;49.444;11.034;2023-05-07T00:07:51;14.50;99.90
13472;DHT22;6808;49.444;11.034;2023-05-07T00:10:18;15.00;99.90
13472;DHT22;6808;49.444;11.034;2023-05-07T00:12:44;14.40;99.90
13472;DHT22;6808;49.444;11.034;2023-05-07T00:15:10;14.40;99.90
13472;DHT22;6808;49.444;11.034;2023-05-07T00:17:36;14.40;99.90
13472;DHT22;6808;49.444;11.034;2023-05-07T00:20:03;14.40;99.90
13472;DHT22;6808;49.444;11.034;2023-05-07T00:22:29;14.40;99.90
13472;DHT22;6808;49.444;11.034;2023-05-07T00:24:55;14.40;99.90
13472;DHT22;6808;49.444;11.034;2023-05-07T00:27:21;14.70;99.90
13472;DHT22;6808;49.444;11.034;2023-05-07T00:29:47;14.40;99.90
13472;DHT22;6808;49.444;11.034;2023-05-07T00:32:12;14.40;99.90
13472;DHT22;6808;49.444;11.034;2023-05-07T00:34:38;14.40;99.90
13472;DHT22;6808;49.444;11.034;2023-05-07T00:37:04;14.40;99.90
13472;DHT22;6808;49.444;11.034;2023-05-07T00:39:30;14.40;99.90
13472;DHT22;6808;49.444;11.034;2023-05-07T00:41:55;14.40;99.90
13472;DHT22;6808;49.444;11.034;2023-05-07T00:44:21;14.40;99.90
13472;DHT22;6808;49.444;11.034;2023-05-07T00:46:46;14.60;99.90
13472;DHT22;6808;49.444;11.034;2023-05-07T00:49:15;14.50;99.90
13472;DHT22;6808;49.444;11.034;2023-05-07T00:51:41;14.50;99.90
13472;DHT22;6808;49.444;11.034;2023-05-07T00:54:07;14.50;99.90
13472;DHT22;6808;49.444;11.034;2023-05-07T00:56:33;14.70;99.90
13472;DHT22;6808;49.444;11.034;2023-05-07T00:59:01;15.30;99.90
13472;DHT22;6808;49.444;11.034;2023-05-07T01:01:27;14.60;99.90
13472;DHT22;6808;49.444;11.034;2023-05-07T01:03:53;14.50;99.90
13472;DHT22;6808;49.444;11.034;2023-05-07T01:06:19;14.50;99.90
13472;DHT22;6808;49.444;11.034;2023-05-07T01:08:46;14.50;99.90
13472;DHT22;6808;49.444;11.034;2023-05-07T01:11:13;14.40;99.90
13472;DHT22;6808;49.444;11.034;2023-05-07T01:13:39;14.30;99.90
13472;DHT22;6808;49.444;11.034;2023-05-07T01:16:06;14.30;99.90
13472;DHT22;6808;49.444;11.034;2023-05-07T01:18:32;14.30;99.90
13472;DHT22;6808;49.444;11.034;2023-05-07T01:20:58;14.40;99.90
13472;DHT22;6808;49.444;11.034;2023-05-07T01:23:25;14.30;99.90
13472;DHT22;6808;49.444;11.034;2023-05-07T01:25:53;14.30;99.90
13472;DHT22;6808;49.444;11.034;2023-05-07T01:28:19;14.20;99.90
13472;DHT22;6808;49.444;11.034;2023-05-07T01:30:46;14.20;99.90
13472;DHT22;6808;49.444;11.034;2023-05-07T01:33:15;14.20;99.90
13472;DHT22;6808;49.444;11.034;2023-05-07T01:35:45;14.20;99.90
13472;DHT22;6808;49.444;11.034;2023-05-07T01:38:11;14.20;99.90
13472;DHT22;6808;49.444;11.034;2023-05-07T01:40:37;14.20;99.90
13472;DHT22;6808;49.444;11.034;2023-05-07T01:43:03;14.30;99.90
13472;DHT22;6808;49.444;11.034;2023-05-07T01:45:30;14.20;99.90
13472;DHT22;6808;49.444;11.034;2023-05-07T01:47:58;14.20;99.90
13472;DHT22;6808;49.444;11.034;2023-05-07T01:50:23;14.20;99.90
13472;DHT22;6808;49.444;11.034;2023-05-07T01:52:50;14.10;99.90
13472;DHT22;6808;49.444;11.034;2023-05-07T01:55:16;14.00;99.90
13472;DHT22;6808;49.444;11.034;2023-05-07T01:57:42;14.00;99.90
13472;DHT22;6808;49.444;11.034;2023-05-07T02:00:08;13.90;99.90
13472;DHT22;6808;49.444;11.034;2023-05-07T02:02:34;13.90;99.90
13472;DHT22;6808;49.444;11.034;2023-05-07T02:05:01;13.90;99.90
13472;DHT22;6808;49.444;11.034;2023-05-07T02:07:27;13.90;99.90
13472;DHT22;6808;49.444;11.034;2023-05-07T02:09:53;13.90;99.90
13472;DHT22;6808;49.444;11.034;2023-05-07T02:12:19;14.00;99.90
13472;DHT22;6808;49.444;11.034;2023-05-07T02:14:44;14.00;99.90
13472;DHT22;6808;49.444;11.034;2023-05-07T02:17:10;14.00;99.90
13472;DHT22;6808;49.444;11.034;2023-05-07T02:19:35;14.00;99.90
13472;DHT22;6808;49.444;11.034;2023-05-07T02:22:01;13.80;99.90
13472;DHT22;6808;49.444;11.034;2023-05-07T02:24:26;13.70;99.90
13472;DHT22;6808;49.444;11.034;2023-05-07T02:26:52;13.90;99.90
13472;DHT22;6808;49.444;11.034;2023-05-07T02:29:17;13.70;99.90
13472;DHT22;6808;49.444;11.034;2023-05-07T02:31:43;13.70;99.90
13472;DHT22;6808;49.444;11.034;2023-05-07T02:34:08;13.70;99.90
13472;DHT22;6808;49.444;11.034;2023-05-07T02:36:34;13.80;99.90
13472;DHT22;6808;49.444;11.034;2023-05-07T02:39:00;13.80;99.90
13472;DHT22;6808;49.444;11.034;2023-05-07T02:41:25;13.80;99.90
13472;DHT22;6808;49.444;11.034;2023-05-07T02:43:53;13.80;99.90
13472;DHT22;6808;49.444;11.034;2023-05-07T02:46:18;13.80;99.90
13472;DHT22;6808;49.444;11.034;2023-05-07T02:48:44;13.90;99.90
13472;DHT22;6808;49.444;11.034;2023-05-07T02:51:09;14.10;99.90
13472;DHT22;6808;49.444;11.034;2023-05-07T02:53:35;13.90;99.90
13472;DHT22;6808;49.444;11.034;2023-05-07T02:56:01;13.90;99.90
13472;DHT22;6808;49.444;11.034;2023-05-07T02:58:27;14.00;99.90
13472;DHT22;6808;49.444;11.034;2023-05-07T03:00:53;13.80;99.90
13472;DHT22;6808;49.444;11.034;2023-05-07T03:03:20;14.20;99.90
13472;DHT22;6808;49.444;11.034;2023-05-07T03:05:45;13.80;99.90
13472;DHT22;6808;49.444;11.034;2023-05-07T03:08:11;13.80;99.90
13472;DHT22;6808;49.444;11.034;2023-05-07T03:10:37;13.80;99.90
13472;DHT22;6808;49.444;11.034;2023-05-07T03:13:03;13.80;99.90
13472;DHT22;6808;49.444;11.034;2023-05-07T03:15:28;13.80;99.90
13472;DHT22;6808;49.444;11.034;2023-05-07T03:17:54;13.80;99.90
13472;DHT22;6808;49.444;11.034;2023-05-07T03:20:20;13.80;99.90
13472;DHT22;6808;49.444;11.034;2023-05-07T03:22:45;13.80;99.90
13472;DHT22;6808;49.444;11.034;2023-05-07T03:25:11;13.70;99.90
13472;DHT22;6808;49.444;11.034;2023-05-07T03:27:36;13.70;99.90
13472;DHT22;6808;49.444;11.034;2023-05-07T03:30:03;13.70;99.90
13472;DHT22;6808;49.444;11.034;2023-05-07T03:32:29;13.60;99.90
13472;DHT22;6808;49.444;11.034;2023-05-07T03:34:55;13.60;99.90
13472;DHT22;6808;49.444;11.034;2023-05-07T03:37:21;13.60;99.90
13472;DHT22;6808;49.444;11.034;2023-05-07T03:39:47;13.50;99.90
13472;DHT22;6808;49.444;11.034;2023-05-07T03:42:12;13.30;99.90
13472;DHT22;6808;49.444;11.034;2023-05-07T03:44:38;13.30;99.90
13472;DHT22;6808;49.444;11.034;2023-05-07T03:47:04;13.30;99.90
13472;DHT22;6808;49.444;11.034;2023-05-07T03:49:29;13.20;99.90
13472;DHT22;6808;49.444;11.034;2023-05-07T03:51:55;13.20;99.90
13472;DHT22;6808;49.444;11.034;2023-05-07T03:54:21;13.30;99.90
13472;DHT22;6808;49.444;11.034;2023-05-07T03:56:46;13.30;99.90
13472;DHT22;6808;49.444;11.034;2023-05-07T03:59:12;13.30;99.90
13472;DHT22;6808;49.444;11.034;2023-05-07T04:01:38;13.40;99.90
13472;DHT22;6808;49.444;11.034;2023-05-07T04:04:04;13.40;99.90
13472;DHT22;6808;49.444;11.034;2023-05-07T04:06:30;13.40;99.90
13472;DHT22;6808;49.444;11.034;2023-05-07T04:08:56;13.40;99.90
13472;DHT22;6808;49.444;11.034;2023-05-07T04:11:22;13.40;99.90
13472;DHT22;6808;49.444;11.034;2023-05-07T04:13:47;13.40;99.90
13472;DHT22;6808;49.444;11.034;2023-05-07T04:16:13;13.40;99.90
13472;DHT22;6808;49.444;11.034;2023-05-07T04:18:38;12.90;99.90
13472;DHT22;6808;49.444;11.034;2023-05-07T04:21:04;13.40;99.90
13472;DHT22;6808;49.444;11.034;2023-05-07T04:23:30;13.40;99.90
13472;DHT22;6808;49.444;11.034;2023-05-07T04:25:56;13.40;99.90
13472;DHT22;6808;49.444;11.034;2023-05-07T04:28:23;13.40;99.90
13472;DHT22;6808;49.444;11.034;2023-05-07T04:30:48;13.40;99.90
13472;DHT22;6808;49.444;11.034;2023-05-07T04:33:14;13.40;99.90
13472;DHT22;6808;49.444;11.034;2023-05-07T04:35:42;13.40;99.90
13472;DHT22;6808;49.444;11.034;2023-05-07T04:38:07;13.40;99.90
13472;DHT22;6808;49.444;11.034;2023-05-07T04:40:35;13.40;99.90
13472;DHT22;6808;49.444;11.034;2023-05-07T04:43:00;13.50;99.90
13472;DHT22;6808;49.444;11.034;2023-05-07T04:45:26;13.50;99.90
13472;DHT22;6808;49.444;11.034;2023-05-07T04:47:52;13.50;99.90
13472;DHT22;6808;49.444;11.034;2023-05-07T04:50:17;13.50;99.90
13472;DHT22;6808;49.444;11.034;2023-05-07T04:52:44;13.60;99.90
13472;DHT22;6808;49.444;11.034;2023-05-07T04:55:10;13.60;99.90
13472;DHT22;6808;49.444;11.034;2023-05-07T04:57:36;13.60;99.90
13472;DHT22;6808;49.444;11.034;2023-05-07T05:00:03;13.60;99.90
13472;DHT22;6808;49.444;11.034;2023-05-07T05:02:29;13.60;99.90
13472;DHT22;6808;49.444;11.034;2023-05-07T05:04:55;13.70;99.90
13472;DHT22;6808;49.444;11.034;2023-05-07T05:07:20;13.60;99.90
13472;DHT22;6808;49.444;11.034;2023-05-07T05:09:46;13.70;99.90
13472;DHT22;6808;49.444;11.034;2023-05-07T05:12:11;13.70;99.90
13472;DHT22;6808;49.444;11.034;2023-05-07T05:14:37;13.70;99.90
13472;DHT22;6808;49.444;11.034;2023-05-07T05:17:02;13.80;99.90
13472;DHT22;6808;49.444;11.034;2023-05-07T05:19:28;13.80;99.90
13472;DHT22;6808;49.444;11.034;2023-05-07T05:21:54;13.90;99.90
13472;DHT22;6808;49.444;11.034;2023-05-07T05:24:19;13.90;99.90
13472;DHT22;6808;49.444;11.034;2023-05-07T05:26:45;13.90;99.90
13472;DHT22;6808;49.444;11.034;2023-05-07T05:29:11;14.00;99.90
13472;DHT22;6808;49.444;11.034;2023-05-07T05:31:36;14.10;99.90
13472;DHT22;6808;49.444;11.034;2023-05-07T05:34:02;14.10;99.90
13472;DHT22;6808;49.444;11.034;2023-05-07T05:36:29;14.20;99.90
13472;DHT22;6808;49.444;11.034;2023-05-07T05:38:55;14.50;99.90
13472;DHT22;6808;49.444;11.034;2023-05-07T05:41:20;14.30;99.90
13472;DHT22;6808;49.444;11.034;2023-05-07T05:43:47;14.30;99.90
13472;DHT22;6808;49.444;11.034;2023-05-07T05:46:12;14.40;99.90
13472;DHT22;6808;49.444;11.034;2023-05-07T05:48:38;14.40;99.90
13472;DHT22;6808;49.444;11.034;2023-05-07T05:51:03;14.40;99.90
13472;DHT22;6808;49.444;11.034;2023-05-07T05:53:30;14.40;99.90
13472;DHT22;6808;49.444;11.034;2023-05-07T05:55:55;14.30;99.90
13472;DHT22;6808;49.444;11.034;2023-05-07T05:58:21;14.30;99.90
13472;DHT22;6808;49.444;11.034;2023-05-07T06:00:46;14.20;99.90
13472;DHT22;6808;49.444;11.034;2023-05-07T06:03:13;14.20;99.90
13472;DHT22;6808;49.444;11.034;2023-05-07T06:05:39;14.30;99.90
13472;DHT22;6808;49.444;11.034;2023-05-07T06:08:04;14.30;99.90
13472;DHT22;6808;49.444;11.034;2023-05-07T06:10:30;14.30;99.90
13472;DHT22;6808;49.444;11.034;2023-05-07T06:12:56;14.40;99.90
13472;DHT22;6808;49.444;11.034;2023-05-07T06:15:21;14.30;99.90
13472;DHT22;6808;49.444;11.034;2023-05-07T06:17:47;14.30;99.90
13472;DHT22;6808;49.444;11.034;2023-05-07T06:20:12;14.30;99.90
13472;DHT22;6808;49.444;11.034;2023-05-07T06:22:38;14.30;99.90
13472;DHT22;6808;49.444;11.034;2023-05-07T06:25:04;14.30;99.90
13472;DHT22;6808;49.444;11.034;2023-05-07T06:27:29;14.30;99.90
13472;DHT22;6808;49.444;11.034;2023-05-07T06:29:55;14.40;99.90
13472;DHT22;6808;49.444;11.034;2023-05-07T06:32:21;14.40;99.90
13472;DHT22;6808;49.444;11.034;2023-05-07T06:34:46;14.30;99.90
13472;DHT22;6808;49.444;11.034;2023-05-07T06:37:12;14.30;99.90
13472;DHT22;6808;49.444;11.034;2023-05-07T06:39:37;15.30;99.90
13472;DHT22;6808;49.444;11.034;2023-05-07T06:42:03;14.20;99.90
13472;DHT22;6808;49.444;11.034;2023-05-07T06:44:30;14.30;99.90
13472;DHT22;6808;49.444;11.034;2023-05-07T06:46:55;14.40;99.90
13472;DHT22;6808;49.444;11.034;2023-05-07T06:49:21;14.50;99.90
13472;DHT22;6808;49.444;11.034;2023-05-07T06:51:46;14.50;99.90
13472;DHT22;6808;49.444;11.034;2023-05-07T06:54:12;14.50;99.90
13472;DHT22;6808;49.444;11.034;2023-05-07T06:56:37;14.60;99.90
13472;DHT22;6808;49.444;11.034;2023-05-07T06:59:03;14.80;99.90
13472;DHT22;6808;49.444;11.034;2023-05-07T07:01:29;15.00;99.90
13472;DHT22;6808;49.444;11.034;2023-05-07T07:03:54;15.10;99.90
13472;DHT22;6808;49.444;11.034;2023-05-07T07:06:20;15.30;99.90
13472;DHT22;6808;49.444;11.034;2023-05-07T07:08:45;15.50;99.90
13472;DHT22;6808;49.444;11.034;2023-05-07T07:11:11;15.50;99.90
13472;DHT22;6808;49.444;11.034;2023-05-07T07:13:37;15.60;99.90
13472;DHT22;6808;49.444;11.034;2023-05-07T07:16:03;15.60;99.90
13472;DHT22;6808;49.444;11.034;2023-05-07T07:18:29;15.70;99.90
13472;DHT22;6808;49.444;11.034;2023-05-07T07:20:54;15.80;99.90
13472;DHT22;6808;49.444;11.034;2023-05-07T07:23:20;15.90;99.90
13472;DHT22;6808;49.444;11.034;2023-05-07T07:25:46;16.00;99.90
13472;DHT22;6808;49.444;11.034;2023-05-07T07:28:11;16.20;99.90
13472;DHT22;6808;49.444;11.034;2023-05-07T07:30:37;16.90;99.90
13472;DHT22;6808;49.444;11.034;2023-05-07T07:33:03;16.40;99.90
13472;DHT22;6808;49.444;11.034;2023-05-07T07:35:29;16.50;99.90
13472;DHT22;6808;49.444;11.034;2023-05-07T07:37:56;16.60;99.90
13472;DHT22;6808;49.444;11.034;2023-05-07T07:40:22;16.70;99.90
13472;DHT22;6808;49.444;11.034;2023-05-07T07:42:48;16.60;99.70
13472;DHT22;6808;49.444;11.034;2023-05-07T07:45:13;16.50;99.90
13472;DHT22;6808;49.444;11.034;2023-05-07T07:47:39;16.50;99.90
13472;DHT22;6808;49.444;11.034;2023-05-07T07:50:06;16.50;99.90
13472;DHT22;6808;49.444;11.034;2023-05-07T07:52:32;16.60;99.90
13472;DHT22;6808;49.444;11.034;2023-05-07T07:54:58;16.60;99.90
13472;DHT22;6808;49.444;11.034;2023-05-07T07:57:23;16.70;99.90
13472;DHT22;6808;49.444;11.034;2023-05-07T07:59:49;16.70;99.90
13472;DHT22;6808;49.444;11.034;2023-05-07T08:02:15;16.80;99.90
13472;DHT22;6808;49.444;11.034;2023-05-07T08:04:41;16.90;99.90
13472;DHT22;6808;49.444;11.034;2023-05-07T08:07:09;16.90;99.90
13472;DHT22;6808;49.444;11.034;2023-05-07T08:09:34;16.90;99.90
13472;DHT22;6808;49.444;11.034;2023-05-07T08:12:00;17.00;99.90
13472;DHT22;6808;49.444;11.034;2023-05-07T08:14:26;17.00;99.90
13472;DHT22;6808;49.444;11.034;2023-05-07T08:16:54;17.00;99.90
13472;DHT22;6808;49.444;11.034;2023-05-07T08:19:20;17.10;99.90
13472;DHT22;6808;49.444;11.034;2023-05-07T08:21:46;17.20;99.90
13472;DHT22;6808;49.444;11.034;2023-05-07T08:24:13;17.20;99.90
13472;DHT22;6808;49.444;11.034;2023-05-07T08:26:39;17.40;99.70
13472;DHT22;6808;49.444;11.034;2023-05-07T08:29:05;17.50;99.70
13472;DHT22;6808;49.444;11.034;2023-05-07T08:31:31;17.50;99.90
13472;DHT22;6808;49.444;11.034;2023-05-07T08:33:57;17.60;99.40
13472;DHT22;6808;49.444;11.034;2023-05-07T08:36:23;17.70;99.10
13472;DHT22;6808;49.444;11.034;2023-05-07T08:38:49;17.80;99.60
13472;DHT22;6808;49.444;11.034;2023-05-07T08:41:15;17.80;98.60
13472;DHT22;6808;49.444;11.034;2023-05-07T08:43:41;17.90;99.90
13472;DHT22;6808;49.444;11.034;2023-05-07T08:46:09;18.00;99.90
13472;DHT22;6808;49.444;11.034;2023-05-07T08:48:35;18.20;99.50
13472;DHT22;6808;49.444;11.034;2023-05-07T08:51:01;18.30;98.70
13472;DHT22;6808;49.444;11.034;2023-05-07T08:53:26;18.40;98.30
13472;DHT22;6808;49.444;11.034;2023-05-07T08:55:53;18.50;98.00
13472;DHT22;6808;49.444;11.034;2023-05-07T08:58:18;18.60;98.60
13472;DHT22;6808;49.444;11.034;2023-05-07T09:00:44;18.70;98.00
13472;DHT22;6808;49.444;11.034;2023-05-07T09:03:10;18.80;98.10
13472;DHT22;6808;49.444;11.034;2023-05-07T09:05:39;19.00;97.80
13472;DHT22;6808;49.444;11.034;2023-05-07T09:08:06;19.10;97.30
13472;DHT22;6808;49.444;11.034;2023-05-07T09:10:36;19.10;96.90
13472;DHT22;6808;49.444;11.034;2023-05-07T09:13:02;19.10;97.00
13472;DHT22;6808;49.444;11.034;2023-05-07T09:15:28;19.10;96.80
13472;DHT22;6808;49.444;11.034;2023-05-07T09:17:54;18.90;96.30
13472;DHT22;6808;49.444;11.034;2023-05-07T09:20:19;18.90;98.00
13472;DHT22;6808;49.444;11.034;2023-05-07T09:22:45;19.00;96.90
13472;DHT22;6808;49.444;11.034;2023-05-07T09:25:11;19.10;96.20
13472;DHT22;6808;49.444;11.034;2023-05-07T09:27:36;19.30;96.80
13472;DHT22;6808;49.444;11.034;2023-05-07T09:30:07;18.50;95.20
13472;DHT22;6808;49.444;11.034;2023-05-07T09:32:37;19.60;96.60
13472;DHT22;6808;49.444;11.034;2023-05-07T09:35:06;19.70;95.70
13472;DHT22;6808;49.444;11.034;2023-05-07T09:37:40;19.80;95.20
13472;DHT22;6808;49.444;11.034;2023-05-07T09:40:07;19.90;95.30
13472;DHT22;6808;49.444;11.034;2023-05-07T09:42:33;19.90;96.20
13472;DHT22;6808;49.444;11.034;2023-05-07T09:44:59;20.00;96.30
13472;DHT22;6808;49.444;11.034;2023-05-07T09:47:26;20.00;95.50
13472;DHT22;6808;49.444;11.034;2023-05-07T09:49:59;20.10;95.00
13472;DHT22;6808;49.444;11.034;2023-05-07T09:52:26;20.00;95.20
13472;DHT22;6808;49.444;11.034;2023-05-07T09:54:59;20.10;95.50
13472;DHT22;6808;49.444;11.034;2023-05-07T09:57:25;20.20;96.20
13472;DHT22;6808;49.444;11.034;2023-05-07T09:59:52;20.20;97.00
13472;DHT22;6808;49.444;11.034;2023-05-07T10:02:19;20.40;94.90
13472;DHT22;6808;49.444;11.034;2023-05-07T10:04:46;20.60;95.60
13472;DHT22;6808;49.444;11.034;2023-05-07T10:07:13;20.70;95.70
13472;DHT22;6808;49.444;11.034;2023-05-07T10:09:40;20.90;94.90
13472;DHT22;6808;49.444;11.034;2023-05-07T10:12:08;20.90;93.70
13472;DHT22;6808;49.444;11.034;2023-05-07T10:14:34;21.10;92.50
13472;DHT22;6808;49.444;11.034;2023-05-07T10:17:02;21.00;93.90
13472;DHT22;6808;49.444;11.034;2023-05-07T10:19:28;20.90;93.00
13472;DHT22;6808;49.444;11.034;2023-05-07T10:21:56;20.80;91.80
13472;DHT22;6808;49.444;11.034;2023-05-07T10:24:35;20.80;91.10
13472;DHT22;6808;49.444;11.034;2023-05-07T10:27:10;20.70;90.80
13472;DHT22;6808;49.444;11.034;2023-05-07T10:29:49;20.70;93.00
13472;DHT22;6808;49.444;11.034;2023-05-07T10:35:02;20.80;91.90
13472;DHT22;6808;49.444;11.034;2023-05-07T10:37:29;20.70;92.20
13472;DHT22;6808;49.444;11.034;2023-05-07T10:39:55;20.80;93.10
13472;DHT22;6808;49.444;11.034;2023-05-07T10:42:20;20.90;93.50
13472;DHT22;6808;49.444;11.034;2023-05-07T10:44:46;21.10;93.50
13472;DHT22;6808;49.444;11.034;2023-05-07T10:47:16;21.40;92.30
13472;DHT22;6808;49.444;11.034;2023-05-07T10:52:23;21.20;91.90
13472;DHT22;6808;49.444;11.034;2023-05-07T10:55:19;21.20;92.90
13472;DHT22;6808;49.444;11.034;2023-05-07T10:57:50;21.40;91.80
13472;DHT22;6808;49.444;11.034;2023-05-07T11:05:29;21.90;91.50
13472;DHT22;6808;49.444;11.034;2023-05-07T11:08:05;21.80;87.90
13472;DHT22;6808;49.444;11.034;2023-05-07T11:10:53;21.70;90.80
13472;DHT22;6808;49.444;11.034;2023-05-07T11:13:48;21.70;90.70
13472;DHT22;6808;49.444;11.034;2023-05-07T11:16:22;22.20;90.40
13472;DHT22;6808;49.444;11.034;2023-05-07T11:18:50;21.80;89.80
13472;DHT22;6808;49.444;11.034;2023-05-07T11:24:00;21.70;91.20
13472;DHT22;6808;49.444;11.034;2023-05-07T11:26:28;21.60;90.60
13472;DHT22;6808;49.444;11.034;2023-05-07T11:28:53;21.60;90.90
13472;DHT22;6808;49.444;11.034;2023-05-07T11:31:27;21.60;91.80
13472;DHT22;6808;49.444;11.034;2023-05-07T11:33:55;21.60;90.70
13472;DHT22;6808;49.444;11.034;2023-05-07T11:36:22;21.50;90.10
13472;DHT22;6808;49.444;11.034;2023-05-07T11:38:48;21.30;90.00
13472;DHT22;6808;49.444;11.034;2023-05-07T11:41:13;21.30;90.90
13472;DHT22;6808;49.444;11.034;2023-05-07T11:43:53;21.40;90.50
13472;DHT22;6808;49.444;11.034;2023-05-07T11:46:20;21.40;89.80
13472;DHT22;6808;49.444;11.034;2023-05-07T11:48:45;21.40;90.50
13472;DHT22;6808;49.444;11.034;2023-05-07T11:51:11;21.40;90.30
13472;DHT22;6808;49.444;11.034;2023-05-07T11:53:42;21.40;89.90
13472;DHT22;6808;49.444;11.034;2023-05-07T11:56:09;21.40;88.80
13472;DHT22;6808;49.444;11.034;2023-05-07T11:58:35;21.40;88.60
13472;DHT22;6808;49.444;11.034;2023-05-07T12:01:00;21.40;87.50
13472;DHT22;6808;49.444;11.034;2023-05-07T12:03:26;21.50;87.10
13472;DHT22;6808;49.444;11.034;2023-05-07T12:05:52;21.50;85.90
13472;DHT22;6808;49.444;11.034;2023-05-07T12:08:19;21.40;84.20
13472;DHT22;6808;49.444;11.034;2023-05-07T12:10:47;21.50;86.10
13472;DHT22;6808;49.444;11.034;2023-05-07T12:13:24;21.60;85.90
13472;DHT22;6808;49.444;11.034;2023-05-07T12:15:54;21.70;84.20
13472;DHT22;6808;49.444;11.034;2023-05-07T12:18:21;21.70;83.70
13472;DHT22;6808;49.444;11.034;2023-05-07T12:20:47;21.70;84.80
13472;DHT22;6808;49.444;11.034;2023-05-07T12:23:14;21.90;83.60
13472;DHT22;6808;49.444;11.034;2023-05-07T12:25:41;21.80;84.30
13472;DHT22;6808;49.444;11.034;2023-05-07T12:28:16;22.00;84.40
13472;DHT22;6808;49.444;11.034;2023-05-07T12:30:46;22.10;81.60
13472;DHT22;6808;49.444;11.034;2023-05-07T12:33:12;22.30;83.50
13472;DHT22;6808;49.444;11.034;2023-05-07T12:35:42;22.50;83.70
13472;DHT22;6808;49.444;11.034;2023-05-07T12:38:12;22.60;80.20
13472;DHT22;6808;49.444;11.034;2023-05-07T12:40:40;22.70;77.80
13472;DHT22;6808;49.444;11.034;2023-05-07T12:43:06;22.50;75.70
13472;DHT22;6808;49.444;11.034;2023-05-07T12:45:37;22.50;79.30
13472;DHT22;6808;49.444;11.034;2023-05-07T12:48:04;22.50;80.60
13472;DHT22;6808;49.444;11.034;2023-05-07T12:50:33;22.60;81.90
13472;DHT22;6808;49.444;11.034;2023-05-07T12:52:59;22.50;81.30
13472;DHT22;6808;49.444;11.034;2023-05-07T12:55:24;22.50;81.10
13472;DHT22;6808;49.444;11.034;2023-05-07T12:57:51;22.60;80.60
13472;DHT22;6808;49.444;11.034;2023-05-07T13:00:18;22.50;78.80
13472;DHT22;6808;49.444;11.034;2023-05-07T13:02:58;22.20;80.00
13472;DHT22;6808;49.444;11.034;2023-05-07T13:05:24;22.20;80.30
13472;DHT22;6808;49.444;11.034;2023-05-07T13:07:53;22.20;81.60
13472;DHT22;6808;49.444;11.034;2023-05-07T13:10:20;22.20;81.60
13472;DHT22;6808;49.444;11.034;2023-05-07T13:12:45;22.10;80.60
13472;DHT22;6808;49.444;11.034;2023-05-07T13:15:11;22.30;78.60
13472;DHT22;6808;49.444;11.034;2023-05-07T13:17:36;22.00;79.90
13472;DHT22;6808;49.444;11.034;2023-05-07T13:20:02;22.00;80.20
13472;DHT22;6808;49.444;11.034;2023-05-07T13:22:27;21.90;80.60
13472;DHT22;6808;49.444;11.034;2023-05-07T13:24:53;22.00;80.70
13472;DHT22;6808;49.444;11.034;2023-05-07T13:27:19;22.00;82.00
13472;DHT22;6808;49.444;11.034;2023-05-07T13:29:45;22.00;81.10
13472;DHT22;6808;49.444;11.034;2023-05-07T13:32:10;22.00;81.20
13472;DHT22;6808;49.444;11.034;2023-05-07T13:34:36;21.90;80.90
13472;DHT22;6808;49.444;11.034;2023-05-07T13:37:02;22.00;81.40
13472;DHT22;6808;49.444;11.034;2023-05-07T13:39:28;21.90;80.70
13472;DHT22;6808;49.444;11.034;2023-05-07T13:41:53;21.90;80.60
13472;DHT22;6808;49.444;11.034;2023-05-07T13:44:19;21.90;81.30
13472;DHT22;6808;49.444;11.034;2023-05-07T13:46:44;21.80;80.10
13472;DHT22;6808;49.444;11.034;2023-05-07T13:49:10;21.70;80.60
13472;DHT22;6808;49.444;11.034;2023-05-07T13:51:37;21.60;81.60
13472;DHT22;6808;49.444;11.034;2023-05-07T13:54:03;21.70;80.70
13472;DHT22;6808;49.444;11.034;2023-05-07T13:56:29;21.60;80.60
13472;DHT22;6808;49.444;11.034;2023-05-07T13:58:57;21.60;79.90
13472;DHT22;6808;49.444;11.034;2023-05-07T14:01:22;21.90;81.60
13472;DHT22;6808;49.444;11.034;2023-05-07T14:03:48;21.60;81.90
13472;DHT22;6808;49.444;11.034;2023-05-07T14:06:14;21.60;81.80
13472;DHT22;6808;49.444;11.034;2023-05-07T14:08:39;21.60;82.40
13472;DHT22;6808;49.444;11.034;2023-05-07T14:11:05;21.60;80.10
13472;DHT22;6808;49.444;11.034;2023-05-07T14:13:31;21.60;81.10
13472;DHT22;6808;49.444;11.034;2023-05-07T14:15:57;21.60;79.70
13472;DHT22;6808;49.444;11.034;2023-05-07T14:18:23;21.60;80.90
13472;DHT22;6808;49.444;11.034;2023-05-07T14:20:48;21.70;80.90
13472;DHT22;6808;49.444;11.034;2023-05-07T14:23:14;21.70;79.60
13472;DHT22;6808;49.444;11.034;2023-05-07T14:25:40;21.80;81.20
13472;DHT22;6808;49.444;11.034;2023-05-07T14:28:06;21.90;82.10
13472;DHT22;6808;49.444;11.034;2023-05-07T14:30:32;22.60;81.60
13472;DHT22;6808;49.444;11.034;2023-05-07T14:32:57;22.20;79.10
13472;DHT22;6808;49.444;11.034;2023-05-07T14:35:23;22.30;77.40
13472;DHT22;6808;49.444;11.034;2023-05-07T14:37:48;22.30;77.50
13472;DHT22;6808;49.444;11.034;2023-05-07T14:40:14;22.60;77.50
13472;DHT22;6808;49.444;11.034;2023-05-07T14:42:40;22.20;76.50
13472;DHT22;6808;49.444;11.034;2023-05-07T14:45:06;22.30;77.90
13472;DHT22;6808;49.444;11.034;2023-05-07T14:47:32;22.20;78.30
13472;DHT22;6808;49.444;11.034;2023-05-07T14:49:57;22.20;76.80
13472;DHT22;6808;49.444;11.034;2023-05-07T14:52:23;22.30;76.70
13472;DHT22;6808;49.444;11.034;2023-05-07T14:54:49;22.30;76.50
13472;DHT22;6808;49.444;11.034;2023-05-07T14:57:15;22.20;76.10
13472;DHT22;6808;49.444;11.034;2023-05-07T14:59:44;22.10;76.80
13472;DHT22;6808;49.444;11.034;2023-05-07T15:02:11;22.00;76.60
13472;DHT22;6808;49.444;11.034;2023-05-07T15:04:37;22.00;78.30
13472;DHT22;6808;49.444;11.034;2023-05-07T15:07:11;22.00;78.30
13472;DHT22;6808;49.444;11.034;2023-05-07T15:09:40;21.90;78.90
13472;DHT22;6808;49.444;11.034;2023-05-07T15:12:06;21.90;79.00
13472;DHT22;6808;49.444;11.034;2023-05-07T15:14:31;21.80;78.60
13472;DHT22;6808;49.444;11.034;2023-05-07T15:16:57;21.80;78.60
13472;DHT22;6808;49.444;11.034;2023-05-07T15:19:22;21.70;78.80
13472;DHT22;6808;49.444;11.034;2023-05-07T15:21:50;21.70;79.20
13472;DHT22;6808;49.444;11.034;2023-05-07T15:24:15;21.70;79.20
13472;DHT22;6808;49.444;11.034;2023-05-07T15:26:41;21.70;79.40
13472;DHT22;6808;49.444;11.034;2023-05-07T15:29:06;21.70;80.10
13472;DHT22;6808;49.444;11.034;2023-05-07T15:31:35;21.60;80.00
13472;DHT22;6808;49.444;11.034;2023-05-07T15:34:02;21.60;80.80
13472;DHT22;6808;49.444;11.034;2023-05-07T15:36:27;21.60;81.70
13472;DHT22;6808;49.444;11.034;2023-05-07T15:38:53;21.70;82.30